Time;durP1;ratioP1;P1;durP2;ratioP2;P2;SDS_P1;SDS_P2;PMS_P1;PMS_P2;Temp;Humidity;BMP_temperature;BMP_pressure;BME280_temperature;BME280_humidity;BME280_pressure;Samples;Min_cycle;Max_cycle;Signal;HPM_P1;HPM_P2
2022/02/25 00:02:09;;;;;;;50.83;22.30;;;;;;;4.89;70.07;100410.03;5129666;27;20616;-74
2022/02/25 00:04:35;;;;;;;55.90;22.97;;;;;;;4.76;70.45;100403.03;5125993;27;20046;-74
2022/02/25 00:07:01;;;;;;;45.40;21.80;;;;;;;4.75;70.68;100403.97;5129045;27;20057;-75
2022/02/25 00:09:26;;;;;;;50.83;21.47;;;;;;;4.71;70.61;100402.50;5126413;27;20022;-75
2022/02/25 00:11:52;;;;;;;49.10;21.33;;;;;;;4.64;71.42;100401.28;5131363;27;20411;-75
2022/02/25 00:14:18;;;;;;;52.27;24.00;;;;;;;4.65;71.46;100400.31;5139292;27;20031;-75
2022/02/25 00:16:44;;;;;;;46.23;21.70;;;;;;;4.55;71.82;100383.56;5142993;27;20039;-75
2022/02/25 00:19:09;;;;;;;46.97;19.93;;;;;;;4.60;71.30;100391.09;5131982;27;20035;-75
2022/02/25 00:21:35;;;;;;;39.33;17.73;;;;;;;4.59;71.32;100389.44;5125826;27;20084;-75
2022/02/25 00:24:00;;;;;;;42.70;18.27;;;;;;;4.46;70.57;100373.72;5129904;27;20023;-75
2022/02/25 00:26:26;;;;;;;44.83;18.93;;;;;;;4.52;70.60;100382.94;5135881;27;20067;-75
2022/02/25 00:28:51;;;;;;;39.93;18.43;;;;;;;4.13;70.91;100343.63;5141299;27;20031;-75
2022/02/25 00:31:17;;;;;;;41.87;17.97;;;;;;;4.31;71.13;100388.75;5133698;27;20080;-75
2022/02/25 00:33:43;;;;;;;40.20;18.37;;;;;;;4.18;71.53;100382.66;5123419;27;20051;-75
2022/02/25 00:36:08;;;;;;;41.53;18.23;;;;;;;4.23;71.15;100391.06;5127199;27;20036;-75
2022/02/25 00:38:34;;;;;;;32.07;16.50;;;;;;;3.95;72.07;100378.13;5126541;27;20394;-75
2022/02/25 00:40:59;;;;;;;41.43;16.60;;;;;;;3.95;72.11;100370.28;5127317;27;20034;-75
2022/02/25 00:43:25;;;;;;;42.17;16.43;;;;;;;4.14;71.23;100391.66;5129611;27;20043;-74
2022/02/25 00:45:50;;;;;;;41.10;15.67;;;;;;;4.27;70.84;100389.91;5131270;27;20035;-75
2022/02/25 00:48:16;;;;;;;28.00;13.80;;;;;;;4.22;70.88;100389.38;5141191;27;20031;-77
2022/02/25 00:50:41;;;;;;;28.40;14.40;;;;;;;4.13;70.36;100361.97;5136412;27;20056;-78
2022/02/25 00:53:07;;;;;;;33.27;14.90;;;;;;;4.20;70.49;100385.19;5126592;27;20384;-76
2022/02/25 00:55:32;;;;;;;38.20;14.90;;;;;;;4.29;69.95;100377.53;5125490;27;20257;-76
2022/02/25 00:57:59;;;;;;;31.47;14.50;;;;;;;4.14;70.40;100368.91;5124585;27;20318;-76
2022/02/25 01:00:25;;;;;;;33.30;14.47;;;;;;;4.43;69.33;100369.53;5128754;27;20035;-76
2022/02/25 01:02:51;;;;;;;29.53;13.93;;;;;;;4.43;69.38;100366.91;5128087;27;20074;-75
2022/02/25 01:05:16;;;;;;;32.30;14.33;;;;;;;4.15;69.96;100351.41;5129089;27;20048;-76
2022/02/25 01:07:43;;;;;;;25.53;12.87;;;;;;;4.11;69.98;100371.72;5128291;27;20209;-75
2022/02/25 01:10:10;;;;;;;25.13;12.87;;;;;;;4.00;70.41;100373.41;5134149;27;20038;-76
2022/02/25 01:12:36;;;;;;;27.00;12.93;;;;;;;3.84;70.94;100350.88;5125630;27;20047;-76
2022/02/25 01:15:03;;;;;;;26.33;12.37;;;;;;;3.68;71.59;100359.88;5126980;28;20081;-75
2022/02/25 01:17:29;;;;;;;29.83;14.07;;;;;;;3.85;70.65;100349.94;5129782;28;20027;-75
2022/02/25 01:19:56;;;;;;;24.70;11.97;;;;;;;4.05;70.07;100356.44;5131532;28;20101;-74
2022/02/25 01:22:22;;;;;;;24.37;12.07;;;;;;;4.05;69.57;100347.72;5122766;28;20102;-75
2022/02/25 01:24:48;;;;;;;27.80;13.47;;;;;;;4.08;69.20;100356.22;5130559;28;20039;-75
2022/02/25 01:27:14;;;;;;;30.87;13.23;;;;;;;3.82;69.90;100329.19;5125356;28;20321;-74
2022/02/25 01:29:39;;;;;;;26.17;14.10;;;;;;;3.72;70.18;100350.88;5129413;27;20032;-75
2022/02/25 01:32:05;;;;;;;27.57;12.73;;;;;;;3.60;70.38;100351.69;5128657;28;20149;-75
2022/02/25 01:34:31;;;;;;;23.20;11.77;;;;;;;3.41;71.18;100342.47;5122544;28;20028;-75
2022/02/25 01:36:56;;;;;;;29.43;13.27;;;;;;;3.21;72.14;100356.03;5139412;28;20031;-75
2022/02/25 01:39:22;;;;;;;28.03;13.43;;;;;;;3.19;71.82;100340.41;5141655;27;20027;-75
2022/02/25 01:41:47;;;;;;;29.40;14.27;;;;;;;3.20;71.80;100322.94;5126806;27;20032;-75
2022/02/25 01:44:18;;;;;;;29.70;14.83;;;;;;;3.24;71.66;100331.44;5129578;28;20072;-75
2022/02/25 01:46:52;;;;;;;30.07;13.67;;;;;;;3.09;72.61;100334.06;5125465;28;20266;-76
2022/02/25 01:49:18;;;;;;;30.33;13.93;;;;;;;2.89;73.18;100324.06;5129066;27;20039;-75
2022/02/25 01:51:46;;;;;;;31.60;14.40;;;;;;;2.72;73.50;100322.53;5127491;28;20066;-75
2022/02/25 01:54:12;;;;;;;28.60;13.03;;;;;;;2.72;73.57;100317.31;5134585;27;20354;-75
2022/02/25 01:56:39;;;;;;;26.73;13.30;;;;;;;2.91;72.67;100324.81;5134530;27;20113;-74
2022/02/25 02:01:33;;;;;;;36.20;14.80;;;;;;;2.80;72.44;100319.44;5021636;28;20037;-73
2022/02/25 02:03:59;;;;;;;30.27;14.30;;;;;;;3.02;72.27;100319.72;5023542;28;20041;-73
2022/02/25 02:06:24;;;;;;;26.27;12.97;;;;;;;3.14;71.25;100313.72;5027868;28;20096;-74
2022/02/25 02:08:50;;;;;;;27.17;12.90;;;;;;;2.78;72.13;100284.69;5025919;28;20030;-73
2022/02/25 02:11:30;;;;;;;26.83;12.17;;;;;;;2.85;72.40;100318.19;5027138;28;20349;-73
2022/02/25 02:13:57;;;;;;;28.77;11.63;;;;;;;2.99;71.85;100308.63;5032841;28;20052;-73
2022/02/25 02:16:23;;;;;;;25.10;10.80;;;;;;;3.10;71.13;100296.50;5008349;28;20026;-74
2022/02/25 02:18:49;;;;;;;20.17;11.17;;;;;;;3.00;70.90;100311.13;5027261;28;20037;-74
2022/02/25 02:21:15;;;;;;;24.67;11.57;;;;;;;2.75;71.61;100311.88;5025911;28;20098;-74
2022/02/25 02:23:40;;;;;;;25.03;12.10;;;;;;;2.65;72.27;100313.41;5025846;28;20037;-74
2022/02/25 02:26:06;;;;;;;25.90;11.27;;;;;;;2.54;72.34;100314.09;5026148;28;20025;-73
2022/02/25 02:28:31;;;;;;;22.27;10.70;;;;;;;2.73;71.89;100299.84;5026774;28;20041;-73
2022/02/25 02:30:56;;;;;;;27.13;12.07;;;;;;;2.59;72.20;100302.50;5027259;28;20044;-74
2022/02/25 02:33:23;;;;;;;33.30;13.03;;;;;;;2.49;72.92;100291.78;5031001;28;20345;-73
2022/02/25 02:35:52;;;;;;;28.50;11.57;;;;;;;2.68;72.43;100296.69;5026754;28;20041;-73
2022/02/25 02:38:18;;;;;;;38.27;13.60;;;;;;;2.21;73.62;100303.97;5025224;28;20041;-73
2022/02/25 02:40:43;;;;;;;29.97;12.57;;;;;;;2.27;73.99;100294.91;5026892;28;20045;-73
2022/02/25 02:43:12;;;;;;;24.93;11.90;;;;;;;2.07;74.45;100288.28;5027333;28;20046;-73
2022/02/25 02:45:39;;;;;;;30.80;12.70;;;;;;;2.19;74.39;100305.00;5024995;28;20037;-73
2022/02/25 02:48:05;;;;;;;23.93;11.73;;;;;;;2.26;74.45;100298.47;5026919;28;20373;-73
2022/02/25 02:50:31;;;;;;;26.87;10.60;;;;;;;2.49;73.42;100295.25;5026137;28;20037;-74
2022/02/25 02:52:57;;;;;;;29.70;12.50;;;;;;;2.34;73.03;100285.75;5027164;28;20070;-74
2022/02/25 02:55:23;;;;;;;26.53;12.20;;;;;;;2.65;72.25;100294.28;5029644;28;20053;-73
2022/02/25 02:57:49;;;;;;;25.37;10.97;;;;;;;2.52;72.37;100289.81;5027333;28;20038;-74
2022/02/25 03:00:16;;;;;;;22.13;11.33;;;;;;;2.48;72.35;100288.34;5028831;28;20077;-73
2022/02/25 03:02:42;;;;;;;31.10;12.50;;;;;;;2.18;73.70;100291.09;5028598;28;20033;-73
2022/02/25 03:05:08;;;;;;;28.57;12.37;;;;;;;2.12;73.89;100293.25;5030006;28;20069;-73
2022/02/25 03:07:33;;;;;;;29.93;12.93;;;;;;;2.24;74.03;100297.72;5029814;28;20061;-73
2022/02/25 03:09:59;;;;;;;36.63;14.40;;;;;;;2.18;73.49;100293.72;5029112;28;20045;-73
2022/02/25 03:12:25;;;;;;;34.53;13.67;;;;;;;1.92;74.51;100304.91;5029108;28;20100;-73
2022/02/25 03:14:50;;;;;;;25.03;13.87;;;;;;;2.00;74.62;100300.06;5027630;28;20038;-74
2022/02/25 03:17:16;;;;;;;23.00;12.97;;;;;;;1.90;74.75;100296.31;5029506;28;20041;-74
2022/02/25 03:19:43;;;;;;;22.13;11.60;;;;;;;2.05;74.62;100281.47;5009104;28;20029;-73
2022/02/25 03:22:08;;;;;;;21.83;9.80;;;;;;;2.24;73.62;100300.34;5030124;28;20040;-73
2022/02/25 03:24:34;;;;;;;26.20;10.20;;;;;;;2.40;72.48;100290.59;5028245;28;20025;-73
2022/02/25 03:26:59;;;;;;;28.47;10.70;;;;;;;2.64;72.09;100296.03;5027953;28;20044;-73
2022/02/25 03:29:25;;;;;;;27.83;9.97;;;;;;;2.78;70.91;100287.31;5009484;28;20476;-74
2022/02/25 03:31:50;;;;;;;22.27;9.00;;;;;;;3.11;70.02;100292.13;5026808;28;20033;-74
2022/02/25 03:34:16;;;;;;;15.90;7.70;;;;;;;3.14;68.94;100289.31;5029758;28;20071;-73
2022/02/25 03:36:42;;;;;;;16.07;8.10;;;;;;;3.23;68.60;100290.50;5027095;28;20042;-73
2022/02/25 03:39:07;;;;;;;15.73;8.90;;;;;;;3.22;68.50;100297.50;5029396;28;20385;-73
2022/02/25 03:41:33;;;;;;;17.53;8.73;;;;;;;3.32;67.79;100295.94;5028051;28;20068;-73
2022/02/25 03:43:59;;;;;;;14.20;7.37;;;;;;;3.22;67.55;100289.66;5027870;28;20043;-73
2022/02/25 03:46:24;;;;;;;16.40;7.57;;;;;;;3.24;67.59;100289.56;5031161;28;20092;-73
2022/02/25 03:48:53;;;;;;;43.57;13.83;;;;;;;3.21;67.86;100293.22;5026572;28;20030;-73
2022/02/25 03:51:21;;;;;;;39.90;11.83;;;;;;;3.15;68.08;100291.84;5030361;28;20029;-73
2022/02/25 03:53:48;;;;;;;29.30;11.07;;;;;;;3.12;67.99;100293.78;5025711;28;20057;-73
2022/02/25 03:56:14;;;;;;;19.40;9.93;;;;;;;3.04;67.70;100289.06;5029591;28;20268;-74
2022/02/25 03:58:39;;;;;;;19.30;9.13;;;;;;;3.18;67.24;100291.63;5026641;28;20105;-74
2022/02/25 04:01:05;;;;;;;27.53;10.73;;;;;;;3.28;67.35;100296.25;5028562;28;20334;-73
2022/02/25 04:03:30;;;;;;;22.63;9.20;;;;;;;3.23;67.65;100301.81;5027692;28;20037;-73
2022/02/25 04:05:56;;;;;;;18.97;9.30;;;;;;;3.19;66.93;100297.72;5027549;28;20101;-74
2022/02/25 04:08:21;;;;;;;19.00;8.83;;;;;;;3.18;66.98;100302.09;5028930;28;20227;-74
2022/02/25 04:10:47;;;;;;;32.20;11.43;;;;;;;3.07;67.45;100299.31;5027927;28;20093;-74
2022/02/25 04:13:12;;;;;;;20.37;9.40;;;;;;;2.92;68.51;100307.34;5027255;28;20033;-73
2022/02/25 04:15:38;;;;;;;17.33;8.40;;;;;;;3.03;68.22;100307.47;5025440;28;20029;-74
2022/02/25 04:18:04;;;;;;;21.20;8.80;;;;;;;3.09;67.67;100294.00;5027648;28;20085;-73
2022/02/25 04:20:29;;;;;;;18.43;9.50;;;;;;;2.95;68.29;100297.50;5028327;28;20033;-74
2022/02/25 04:22:55;;;;;;;22.93;9.20;;;;;;;2.98;68.90;100292.09;5028207;28;20068;-74
2022/02/25 04:25:20;;;;;;;29.73;10.10;;;;;;;2.98;69.03;100291.25;5027219;28;20046;-73
2022/02/25 04:27:46;;;;;;;32.63;10.90;;;;;;;2.59;69.75;100287.66;5027720;28;20022;-73
2022/02/25 04:30:12;;;;;;;33.87;13.27;;;;;;;2.37;70.73;100280.34;5035328;28;20119;-73
2022/02/25 04:32:37;;;;;;;25.67;11.20;;;;;;;2.05;72.09;100282.31;5025555;28;20099;-73
2022/02/25 04:35:03;;;;;;;25.73;9.63;;;;;;;2.11;72.03;100279.38;5029418;28;20037;-73
2022/02/25 04:37:30;;;;;;;16.57;7.03;;;;;;;2.30;71.55;100283.44;5018869;28;20033;-73
2022/02/25 04:39:55;;;;;;;15.57;7.60;;;;;;;2.54;71.18;100285.34;5026600;28;20049;-74
2022/02/25 04:42:21;;;;;;;19.30;8.50;;;;;;;2.51;70.91;100271.63;5026914;28;20034;-74
2022/02/25 04:44:47;;;;;;;24.27;9.77;;;;;;;2.79;69.89;100289.00;5025518;28;20030;-73
2022/02/25 04:47:12;;;;;;;17.10;7.87;;;;;;;2.82;70.03;100280.94;5018498;28;20033;-73
2022/02/25 04:49:37;;;;;;;15.07;8.03;;;;;;;2.74;68.88;100286.66;5027560;28;20041;-74
2022/02/25 04:52:03;;;;;;;35.17;15.40;;;;;;;2.80;68.49;100288.88;5025179;28;20048;-73
2022/02/25 04:54:29;;;;;;;39.50;17.03;;;;;;;2.87;68.69;100282.31;5026801;28;20048;-73
2022/02/25 04:56:55;;;;;;;44.10;21.70;;;;;;;2.93;68.62;100291.53;5018000;28;20067;-73
2022/02/25 04:59:20;;;;;;;47.57;22.47;;;;;;;3.08;67.53;100287.91;5025784;28;20045;-73
2022/02/25 05:01:46;;;;;;;41.07;15.57;;;;;;;2.74;68.81;100284.06;5026306;28;20026;-73
2022/02/25 05:04:12;;;;;;;27.90;13.37;;;;;;;2.34;70.32;100279.69;5025755;28;20048;-74
2022/02/25 05:06:38;;;;;;;23.13;12.87;;;;;;;2.38;69.69;100289.84;5028538;28;20049;-74
2022/02/25 05:09:03;;;;;;;29.63;14.40;;;;;;;2.20;70.83;100284.00;5026405;28;20326;-74
2022/02/25 05:11:29;;;;;;;35.53;15.33;;;;;;;2.45;69.74;100288.53;5026100;28;20029;-73
2022/02/25 05:13:55;;;;;;;30.00;13.33;;;;;;;2.38;69.48;100294.25;5009889;28;20025;-73
2022/02/25 05:21:49;;;;;;;27.55;12.05;;;;;;;2.56;69.38;100301.75;5027780;28;20039;-73
2022/02/25 05:24:14;;;;;;;33.57;12.27;;;;;;;2.55;69.55;100302.69;5026462;28;20017;-73
2022/02/25 05:26:40;;;;;;;27.40;11.20;;;;;;;2.69;68.90;100308.81;5026997;28;20265;-73
2022/02/25 05:29:05;;;;;;;26.93;10.40;;;;;;;2.89;68.33;100306.59;5028426;28;20052;-73
2022/02/25 05:31:33;;;;;;;23.30;11.03;;;;;;;2.99;67.82;100299.00;5028998;28;20038;-74
2022/02/25 05:33:58;;;;;;;39.00;18.90;;;;;;;3.00;68.02;100316.38;5030997;28;20115;-73
2022/02/25 05:36:24;;;;;;;33.53;19.57;;;;;;;3.10;67.78;100314.81;5031804;28;20277;-73
2022/02/25 05:38:49;;;;;;;38.80;14.43;;;;;;;3.27;67.17;100305.91;5029279;28;20093;-73
2022/02/25 05:41:16;;;;;;;24.07;9.90;;;;;;;3.32;66.66;100309.03;5031367;28;20021;-73
2022/02/25 05:43:42;;;;;;;22.83;10.30;;;;;;;3.15;66.56;100286.59;5031396;28;20045;-73
2022/02/25 05:46:08;;;;;;;23.97;10.63;;;;;;;2.84;67.79;100297.38;5030086;28;20057;-74
2022/02/25 05:48:34;;;;;;;17.23;8.50;;;;;;;2.79;68.88;100294.22;5030444;28;20025;-74
2022/02/25 05:50:59;;;;;;;11.07;6.43;;;;;;;2.76;69.44;100294.41;5029954;28;20033;-74
2022/02/25 05:53:25;;;;;;;17.37;6.97;;;;;;;3.23;67.65;100293.13;5030890;28;20034;-73
2022/02/25 05:55:50;;;;;;;19.57;8.30;;;;;;;3.34;67.24;100282.75;5032638;28;20040;-73
2022/02/25 05:58:16;;;;;;;14.07;7.03;;;;;;;3.47;66.81;100288.84;5030217;28;20087;-74
2022/02/25 06:00:41;;;;;;;17.23;8.33;;;;;;;3.44;66.81;100286.44;5031385;28;20160;-74
2022/02/25 06:03:06;;;;;;;19.07;9.73;;;;;;;3.40;67.48;100290.19;5029624;28;20093;-74
2022/02/25 06:05:32;;;;;;;18.97;10.00;;;;;;;3.44;67.48;100289.06;5028435;28;20029;-74
2022/02/25 06:08:00;;;;;;;16.87;8.77;;;;;;;3.72;66.46;100306.34;5031649;28;20045;-74
2022/02/25 06:10:25;;;;;;;24.40;9.27;;;;;;;3.54;67.31;100305.81;5031043;28;20060;-74
2022/02/25 06:12:51;;;;;;;19.67;8.37;;;;;;;3.72;66.35;100304.56;5028695;28;20402;-74
2022/02/25 06:15:16;;;;;;;24.50;9.50;;;;;;;3.84;66.54;100301.09;5031880;28;20128;-74
2022/02/25 06:17:47;;;;;;;27.17;11.90;;;;;;;3.75;66.68;100303.53;5030647;28;20038;-74
2022/02/25 06:20:13;;;;;;;40.23;15.83;;;;;;;3.96;66.80;100302.03;5027144;28;20034;-74
2022/02/25 06:22:39;;;;;;;35.80;15.30;;;;;;;3.89;66.46;100266.72;5022662;28;20341;-74
2022/02/25 06:25:04;;;;;;;35.80;17.23;;;;;;;4.74;64.91;100307.00;5027901;28;20026;-74
2022/02/25 06:27:30;;;;;;;28.20;12.03;;;;;;;5.11;63.69;100287.63;5028397;28;20198;-74
2022/02/25 06:29:55;;;;;;;35.03;15.20;;;;;;;5.53;62.58;100290.63;5028699;28;20057;-74
2022/02/25 06:32:21;;;;;;;26.73;12.47;;;;;;;5.42;62.09;100295.84;5028256;28;20392;-74
2022/02/25 06:34:46;;;;;;;23.50;11.23;;;;;;;5.45;61.03;100293.00;5030464;28;20045;-74
2022/02/25 06:37:12;;;;;;;18.60;10.27;;;;;;;5.41;61.39;100305.53;5029048;28;20056;-74
2022/02/25 06:39:37;;;;;;;19.63;9.40;;;;;;;5.36;61.35;100298.94;5029520;28;20035;-74
2022/02/25 06:42:03;;;;;;;18.83;8.82;;;;;;;5.59;60.36;100299.81;5030207;28;20093;-74
2022/02/25 06:44:29;;;;;;;20.45;10.27;;;;;;;5.73;59.80;100308.34;5028247;28;20211;-74
2022/02/25 06:46:54;;;;;;;16.52;8.45;;;;;;;5.91;58.68;100313.16;5029935;28;20327;-74
2022/02/25 06:49:19;;;;;;;17.65;7.70;;;;;;;5.94;59.24;100299.78;5030021;28;20037;-74
2022/02/25 06:51:45;;;;;;;16.73;8.55;;;;;;;5.97;58.79;100308.25;5010923;28;20029;-74
2022/02/25 06:54:11;;;;;;;17.42;7.57;;;;;;;5.97;58.96;100312.69;5029757;28;20343;-74
2022/02/25 06:56:36;;;;;;;15.02;7.72;;;;;;;6.06;58.82;100312.81;5028351;28;20294;-74
2022/02/25 06:59:02;;;;;;;13.43;7.07;;;;;;;6.48;59.18;100320.94;5027688;28;20041;-74
2022/02/25 07:01:27;;;;;;;14.20;7.18;;;;;;;6.79;58.69;100321.94;5031704;28;20128;-74
2022/02/25 07:03:53;;;;;;;14.40;7.50;;;;;;;6.94;57.56;100325.97;5036409;28;20025;-74
2022/02/25 07:06:23;;;;;;;19.63;9.18;;;;;;;6.87;58.11;100324.78;5029411;28;20065;-73
2022/02/25 07:08:50;;;;;;;14.60;7.40;;;;;;;6.67;57.87;100323.78;5029780;28;20060;-74
2022/02/25 07:11:16;;;;;;;14.23;7.40;;;;;;;6.76;58.77;100324.00;5029983;28;20496;-74
2022/02/25 07:13:42;;;;;;;16.73;6.63;;;;;;;6.95;57.61;100330.28;5028358;28;20033;-73
2022/02/25 07:16:07;;;;;;;17.63;8.00;;;;;;;7.05;57.37;100314.56;5028281;28;20242;-73
2022/02/25 07:18:33;;;;;;;16.20;7.35;;;;;;;6.91;57.00;100328.84;5028069;28;20042;-74
2022/02/25 07:20:58;;;;;;;15.00;7.93;;;;;;;7.25;57.69;100334.00;5028946;28;20092;-73
2022/02/25 07:23:24;;;;;;;18.77;8.20;;;;;;;7.55;56.84;100330.66;5028508;28;20040;-74
2022/02/25 07:25:49;;;;;;;23.35;11.18;;;;;;;7.94;57.03;100326.44;5028099;28;20087;-74
2022/02/25 07:28:15;;;;;;;27.52;9.98;;;;;;;8.40;55.46;100322.53;5035352;28;20072;-74
2022/02/25 07:30:40;;;;;;;12.93;6.40;;;;;;;8.36;54.44;100321.13;5028417;28;20313;-74
2022/02/25 07:33:06;;;;;;;12.40;6.10;;;;;;;8.29;53.62;100320.75;5028899;28;21088;-74
2022/02/25 07:35:31;;;;;;;12.02;6.22;;;;;;;7.93;54.26;100317.69;5038689;28;20013;-74
2022/02/25 07:38:00;;;;;;;10.90;6.22;;;;;;;7.86;54.34;100318.34;5025154;28;20936;-74
2022/02/25 07:40:26;;;;;;;17.25;6.15;;;;;;;8.10;54.58;100325.97;5023740;28;20022;-74
2022/02/25 07:42:51;;;;;;;13.48;6.47;;;;;;;8.60;53.96;100325.09;5025737;28;20098;-74
2022/02/25 07:45:17;;;;;;;14.60;6.55;;;;;;;8.98;53.08;100331.41;5024278;28;20028;-74
2022/02/25 07:47:43;;;;;;;17.65;7.63;;;;;;;9.47;52.90;100329.63;5024607;28;20037;-74
2022/02/25 07:50:10;;;;;;;17.90;6.55;;;;;;;9.40;52.27;100328.53;5006255;28;20026;-74
2022/02/25 07:52:36;;;;;;;14.68;5.68;;;;;;;9.65;52.29;100320.00;5023776;28;20037;-74
2022/02/25 07:55:02;;;;;;;16.02;5.45;;;;;;;9.62;52.10;100299.13;5025223;28;20025;-74
2022/02/25 07:57:27;;;;;;;11.38;5.75;;;;;;;9.38;52.11;100304.88;5023754;28;20063;-74
2022/02/25 07:59:53;;;;;;;8.90;4.80;;;;;;;9.42;52.10;100305.44;5023849;28;20049;-74
2022/02/25 08:02:18;;;;;;;10.13;4.95;;;;;;;9.47;51.51;100304.03;5024264;28;20041;-74
2022/02/25 08:04:44;;;;;;;11.52;5.22;;;;;;;9.59;53.05;100294.13;5025087;28;20196;-74
2022/02/25 08:07:09;;;;;;;13.85;5.30;;;;;;;9.47;52.08;100301.38;5023724;28;20267;-74
2022/02/25 08:09:35;;;;;;;15.43;5.47;;;;;;;10.00;51.79;100311.41;5025059;28;20030;-74
2022/02/25 08:12:02;;;;;;;8.95;5.30;;;;;;;10.08;50.97;100314.19;5026558;28;20038;-74
2022/02/25 08:14:27;;;;;;;14.55;5.63;;;;;;;10.27;51.57;100305.34;5023802;28;20057;-74
2022/02/25 08:16:52;;;;;;;8.48;4.93;;;;;;;10.53;51.38;100301.06;5034389;28;20104;-74
2022/02/25 08:19:18;;;;;;;13.40;5.47;;;;;;;10.42;50.98;100293.31;5023710;28;20132;-74
2022/02/25 08:21:43;;;;;;;13.02;6.20;;;;;;;10.52;52.12;100298.56;5023378;28;20056;-74
2022/02/25 08:24:09;;;;;;;12.95;5.72;;;;;;;10.50;51.38;100288.13;5022377;28;20230;-74
2022/02/25 08:26:34;;;;;;;8.05;5.65;;;;;;;10.76;51.16;100279.47;5022358;28;20350;-74
2022/02/25 08:29:01;;;;;;;12.48;5.85;;;;;;;11.04;50.65;100275.75;5023202;28;20027;-73
2022/02/25 08:31:26;;;;;;;10.35;5.50;;;;;;;11.12;50.57;100285.59;5023746;28;20030;-73
2022/02/25 08:33:52;;;;;;;13.82;6.22;;;;;;;11.47;49.20;100274.13;5023342;28;20033;-73
2022/02/25 08:36:18;;;;;;;13.10;5.63;;;;;;;11.48;48.20;100268.69;5024255;28;20056;-73
2022/02/25 08:38:44;;;;;;;7.15;4.30;;;;;;;11.60;47.89;100276.38;5024693;28;20030;-73
2022/02/25 08:41:10;;;;;;;10.63;3.85;;;;;;;11.75;46.25;100274.81;5022827;28;20038;-73
2022/02/25 08:43:35;;;;;;;9.20;4.45;;;;;;;11.80;45.13;100276.03;5024057;28;20028;-74
2022/02/25 08:46:01;;;;;;;7.65;4.40;;;;;;;11.72;44.49;100264.53;5024213;28;20025;-74
2022/02/25 08:48:27;;;;;;;9.07;4.22;;;;;;;11.68;43.51;100261.34;5022788;28;20319;-73
2022/02/25 08:50:53;;;;;;;7.63;3.97;;;;;;;11.62;43.51;100269.09;5023531;28;20034;-73
2022/02/25 08:53:19;;;;;;;6.35;3.63;;;;;;;11.69;42.70;100268.31;5024020;28;20128;-73
2022/02/25 08:55:44;;;;;;;7.38;3.65;;;;;;;11.71;42.45;100254.91;5023894;28;20033;-74
2022/02/25 08:58:10;;;;;;;6.00;3.83;;;;;;;11.82;42.86;100268.75;5034059;28;20033;-74
2022/02/25 09:00:35;;;;;;;8.35;3.40;;;;;;;12.01;42.09;100264.22;5022846;28;20049;-74
2022/02/25 09:03:01;;;;;;;16.27;3.70;;;;;;;11.83;42.09;100256.31;5023225;28;20335;-74
2022/02/25 09:05:27;;;;;;;6.45;3.78;;;;;;;11.61;42.16;100251.53;5023315;28;20064;-74
2022/02/25 09:07:54;;;;;;;7.22;4.10;;;;;;;11.52;42.62;100240.88;5022554;28;20030;-74
2022/02/25 09:10:21;;;;;;;8.35;3.47;;;;;;;11.83;43.61;100243.88;5021728;28;20030;-74
2022/02/25 09:12:48;;;;;;;13.40;3.75;;;;;;;11.97;42.83;100239.81;5023181;28;20028;-74
2022/02/25 09:15:26;;;;;;;11.82;4.68;;;;;;;11.57;43.01;100231.59;5023070;28;20231;-74
2022/02/25 09:17:58;;;;;;;8.65;3.78;;;;;;;11.30;43.21;100229.91;5023847;28;20215;-74
2022/02/25 09:20:25;;;;;;;9.20;3.40;;;;;;;11.70;44.07;100214.28;5023241;28;20238;-74
2022/02/25 09:22:51;;;;;;;20.23;4.18;;;;;;;11.98;43.44;100222.06;5021276;28;20045;-74
2022/02/25 09:25:17;;;;;;;10.88;4.28;;;;;;;12.23;42.89;100223.00;5021689;28;20048;-74
2022/02/25 09:27:44;;;;;;;6.70;4.00;;;;;;;12.09;41.52;100219.13;5023232;28;20065;-74
2022/02/25 09:30:12;;;;;;;27.55;6.30;;;;;;;11.86;41.28;100221.50;5023663;28;20233;-74
2022/02/25 09:32:38;;;;;;;8.13;4.20;;;;;;;11.83;41.60;100220.00;5023363;28;20085;-74
2022/02/25 09:35:05;;;;;;;7.50;3.80;;;;;;;11.70;40.74;100198.34;5025141;28;20029;-74
2022/02/25 09:37:34;;;;;;;7.82;3.33;;;;;;;11.72;41.05;100209.66;5023743;28;20131;-74
2022/02/25 09:40:02;;;;;;;9.10;3.50;;;;;;;11.73;42.81;100200.69;5022711;28;20033;-74
2022/02/25 09:42:28;;;;;;;6.95;2.95;;;;;;;11.65;40.43;100207.78;5024480;28;20049;-74
2022/02/25 09:44:53;;;;;;;5.38;3.15;;;;;;;11.83;40.75;100214.72;5021514;28;20022;-74
2022/02/25 09:47:19;;;;;;;18.50;7.70;;;;;;;11.58;41.29;100177.56;5023164;28;20056;-74
2022/02/25 09:49:44;;;;;;;18.20;4.72;;;;;;;11.73;40.28;100202.50;5022060;28;20073;-74
2022/02/25 09:52:15;;;;;;;17.77;7.57;;;;;;;11.88;41.24;100203.63;5005001;28;20033;-75
2022/02/25 09:54:42;;;;;;;7.80;4.07;;;;;;;11.81;41.53;100203.41;5022828;28;20065;-74
2022/02/25 09:57:08;;;;;;;10.25;3.95;;;;;;;11.67;40.51;100190.72;5006617;28;20087;-74
2022/02/25 09:59:34;;;;;;;6.22;3.13;;;;;;;11.82;39.95;100194.47;5025154;28;20041;-74
2022/02/25 10:02:05;;;;;;;6.20;3.10;;;;;;;11.85;39.52;100198.63;5025081;28;20042;-74
2022/02/25 10:04:32;;;;;;;17.95;5.30;;;;;;;11.39;37.65;100184.72;5026542;28;20052;-74
2022/02/25 10:07:00;;;;;;;9.50;3.83;;;;;;;11.50;36.59;100179.19;5023458;28;20042;-73
2022/02/25 10:09:35;;;;;;;6.22;2.75;;;;;;;11.54;38.19;100181.53;5027922;28;20042;-74
2022/02/25 10:12:09;;;;;;;52.33;7.00;;;;;;;11.31;37.48;100187.31;5026174;28;20113;-73
2022/02/25 10:14:37;;;;;;;5.78;2.45;;;;;;;11.59;37.72;100181.88;5025254;28;20109;-73
2022/02/25 10:17:08;;;;;;;10.80;3.83;;;;;;;11.63;37.48;100176.09;5026883;28;20041;-74
2022/02/25 10:19:34;;;;;;;13.13;3.78;;;;;;;11.65;34.05;100171.47;5026654;28;20033;-74
2022/02/25 10:22:26;;;;;;;6.68;3.10;;;;;;;11.95;36.28;100169.31;5026009;28;20056;-74
2022/02/25 10:24:55;;;;;;;4.60;2.67;;;;;;;11.54;35.74;100153.19;5032063;28;20045;-74
2022/02/25 10:27:27;;;;;;;5.57;2.70;;;;;;;11.71;37.25;100157.56;5025202;28;20042;-74
2022/02/25 10:30:05;;;;;;;4.72;2.70;;;;;;;11.17;34.61;100148.97;5031438;28;20049;-74
2022/02/25 10:32:41;;;;;;;3.72;2.42;;;;;;;11.22;35.32;100140.56;5029887;28;20037;-74
2022/02/25 10:35:22;;;;;;;3.75;2.00;;;;;;;11.42;36.49;100135.84;5022231;28;20037;-73
2022/02/25 10:37:58;;;;;;;4.93;2.08;;;;;;;11.55;36.21;100124.84;5025451;28;20235;-74
2022/02/25 10:40:25;;;;;;;6.28;2.20;;;;;;;11.58;36.60;100087.41;5024847;28;20022;-74
2022/02/25 10:42:51;;;;;;;11.77;4.07;;;;;;;11.67;34.41;100112.97;5031016;28;20057;-74
2022/02/25 10:45:29;;;;;;;4.18;2.38;;;;;;;11.92;33.12;100114.72;5026595;28;20040;-73
2022/02/25 10:48:03;;;;;;;6.97;2.38;;;;;;;11.91;34.02;100106.94;5025962;28;20042;-74
2022/02/25 10:50:29;;;;;;;4.15;3.03;;;;;;;12.04;34.96;100108.13;5029655;28;20030;-74
2022/02/25 10:52:56;;;;;;;9.75;3.42;;;;;;;11.94;35.37;100099.47;5029480;28;20042;-74
2022/02/25 10:55:26;;;;;;;4.03;2.40;;;;;;;11.83;34.24;100103.28;5028325;28;20038;-74
2022/02/25 10:57:53;;;;;;;3.97;2.22;;;;;;;11.95;32.74;100087.03;5026756;28;20037;-73
2022/02/25 11:00:20;;;;;;;4.05;2.30;;;;;;;12.01;32.90;100087.22;5024376;28;20065;-74
2022/02/25 11:02:47;;;;;;;5.72;2.33;;;;;;;12.04;34.30;100078.09;5028892;28;20030;-74
2022/02/25 11:05:24;;;;;;;4.18;2.30;;;;;;;12.12;36.03;100078.13;5027195;28;20025;-74
2022/02/25 11:07:55;;;;;;;4.43;2.53;;;;;;;11.86;34.39;100067.63;5028266;28;20124;-74
2022/02/25 11:10:24;;;;;;;8.82;3.28;;;;;;;12.01;33.69;100059.84;5028519;28;20037;-73
2022/02/25 11:12:51;;;;;;;4.10;2.40;;;;;;;12.04;32.43;100059.53;5023417;28;20033;-73
2022/02/25 11:15:22;;;;;;;5.68;2.88;;;;;;;12.11;31.68;100045.44;5029989;28;20060;-74
2022/02/25 11:17:49;;;;;;;4.07;1.88;;;;;;;12.47;31.22;100047.75;5027262;28;20037;-74
2022/02/25 11:20:21;;;;;;;4.85;1.63;;;;;;;12.47;28.83;100045.94;5029824;28;20226;-73
2022/02/25 11:22:51;;;;;;;3.40;2.13;;;;;;;12.34;29.99;100036.81;5027312;28;20105;-73
2022/02/25 11:25:17;;;;;;;7.07;2.08;;;;;;;12.42;29.74;100039.47;5027149;28;20037;-74
2022/02/25 11:27:44;;;;;;;3.08;1.67;;;;;;;12.34;28.29;100032.34;5029239;28;20048;-74